sensor_id;sensor_type;location;lat;lon;timestamp;P1;durP1;ratioP1;P2;durP2;ratioP2
18657;SDS011;9458;50.942;5.074;2023-02-01T00:01:40;16.58;;;6.70;;
18657;SDS011;9458;50.942;5.074;2023-02-01T00:04:10;17.58;;;6.88;;
18657;SDS011;9458;50.942;5.074;2023-02-01T00:06:40;19.15;;;6.95;;
18657;SDS011;9458;50.942;5.074;2023-02-01T00:09:08;14.82;;;6.95;;
18657;SDS011;9458;50.942;5.074;2023-02-01T00:11:38;17.73;;;7.28;;
18657;SDS011;9458;50.942;5.074;2023-02-01T00:14:06;19.60;;;7.57;;
18657;SDS011;9458;50.942;5.074;2023-02-01T00:16:34;15.82;;;7.95;;
18657;SDS011;9458;50.942;5.074;2023-02-01T00:19:04;11.90;;;7.38;;
18657;SDS011;9458;50.942;5.074;2023-02-01T00:21:33;17.67;;;7.57;;
18657;SDS011;9458;50.942;5.074;2023-02-01T00:24:01;17.83;;;7.13;;
18657;SDS011;9458;50.942;5.074;2023-02-01T00:26:31;14.43;;;6.72;;
18657;SDS011;9458;50.942;5.074;2023-02-01T00:29:04;20.42;;;7.55;;
18657;SDS011;9458;50.942;5.074;2023-02-01T00:31:36;14.30;;;6.83;;
18657;SDS011;9458;50.942;5.074;2023-02-01T00:34:03;20.80;;;7.03;;
18657;SDS011;9458;50.942;5.074;2023-02-01T00:36:32;15.02;;;6.50;;
18657;SDS011;9458;50.942;5.074;2023-02-01T00:39:01;19.88;;;6.85;;
18657;SDS011;9458;50.942;5.074;2023-02-01T00:41:29;13.60;;;6.93;;
18657;SDS011;9458;50.942;5.074;2023-02-01T00:43:57;15.52;;;6.07;;
18657;SDS011;9458;50.942;5.074;2023-02-01T00:46:26;11.65;;;5.88;;
18657;SDS011;9458;50.942;5.074;2023-02-01T00:48:55;14.25;;;6.30;;
18657;SDS011;9458;50.942;5.074;2023-02-01T00:51:23;16.70;;;6.53;;
18657;SDS011;9458;50.942;5.074;2023-02-01T00:53:53;14.48;;;6.07;;
18657;SDS011;9458;50.942;5.074;2023-02-01T00:56:23;17.08;;;6.55;;
18657;SDS011;9458;50.942;5.074;2023-02-01T00:58:52;13.25;;;5.65;;
18657;SDS011;9458;50.942;5.074;2023-02-01T01:01:23;16.08;;;5.07;;
18657;SDS011;9458;50.942;5.074;2023-02-01T01:03:57;14.80;;;4.90;;
18657;SDS011;9458;50.942;5.074;2023-02-01T01:06:27;18.33;;;5.68;;
18657;SDS011;9458;50.942;5.074;2023-02-01T01:08:57;12.80;;;4.47;;
18657;SDS011;9458;50.942;5.074;2023-02-01T01:11:28;18.65;;;5.03;;
18657;SDS011;9458;50.942;5.074;2023-02-01T01:13:58;10.68;;;4.50;;
18657;SDS011;9458;50.942;5.074;2023-02-01T01:16:31;12.52;;;4.35;;
18657;SDS011;9458;50.942;5.074;2023-02-01T01:19:04;14.70;;;5.05;;
18657;SDS011;9458;50.942;5.074;2023-02-01T01:21:35;14.48;;;4.85;;
18657;SDS011;9458;50.942;5.074;2023-02-01T01:24:04;10.73;;;4.22;;
18657;SDS011;9458;50.942;5.074;2023-02-01T01:26:35;11.88;;;4.60;;
18657;SDS011;9458;50.942;5.074;2023-02-01T01:29:05;12.70;;;4.00;;
18657;SDS011;9458;50.942;5.074;2023-02-01T01:31:40;9.02;;;3.95;;
18657;SDS011;9458;50.942;5.074;2023-02-01T01:34:09;17.63;;;4.95;;
18657;SDS011;9458;50.942;5.074;2023-02-01T01:36:39;15.68;;;4.80;;
18657;SDS011;9458;50.942;5.074;2023-02-01T01:39:09;12.82;;;4.68;;
18657;SDS011;9458;50.942;5.074;2023-02-01T01:41:47;14.75;;;4.82;;
18657;SDS011;9458;50.942;5.074;2023-02-01T01:47:37;10.85;;;4.85;;
18657;SDS011;9458;50.942;5.074;2023-02-01T01:50:08;10.52;;;4.18;;
18657;SDS011;9458;50.942;5.074;2023-02-01T01:52:40;9.65;;;4.55;;
18657;SDS011;9458;50.942;5.074;2023-02-01T01:55:13;12.52;;;4.22;;
18657;SDS011;9458;50.942;5.074;2023-02-01T01:57:46;7.38;;;3.92;;
18657;SDS011;9458;50.942;5.074;2023-02-01T02:00:20;16.15;;;4.68;;
18657;SDS011;9458;50.942;5.074;2023-02-01T02:02:51;14.40;;;3.55;;
18657;SDS011;9458;50.942;5.074;2023-02-01T02:05:21;14.77;;;3.63;;
18657;SDS011;9458;50.942;5.074;2023-02-01T02:07:49;12.13;;;3.53;;
18657;SDS011;9458;50.942;5.074;2023-02-01T02:10:20;13.15;;;3.80;;
18657;SDS011;9458;50.942;5.074;2023-02-01T02:13:08;12.70;;;3.88;;
18657;SDS011;9458;50.942;5.074;2023-02-01T02:15:45;12.60;;;3.55;;
18657;SDS011;9458;50.942;5.074;2023-02-01T02:18:26;16.05;;;3.67;;
18657;SDS011;9458;50.942;5.074;2023-02-01T02:21:08;11.40;;;3.65;;
18657;SDS011;9458;50.942;5.074;2023-02-01T02:26:42;19.08;;;3.30;;
18657;SDS011;9458;50.942;5.074;2023-02-01T02:32:21;13.15;;;2.78;;
18657;SDS011;9458;50.942;5.074;2023-02-01T02:35:14;12.23;;;2.75;;
18657;SDS011;9458;50.942;5.074;2023-02-01T02:37:51;11.35;;;2.92;;
18657;SDS011;9458;50.942;5.074;2023-02-01T02:40:25;12.38;;;2.80;;
18657;SDS011;9458;50.942;5.074;2023-02-01T02:43:01;11.32;;;2.63;;
18657;SDS011;9458;50.942;5.074;2023-02-01T02:45:54;14.18;;;2.65;;
18657;SDS011;9458;50.942;5.074;2023-02-01T02:48:57;13.68;;;2.95;;
18657;SDS011;9458;50.942;5.074;2023-02-01T02:51:32;14.98;;;3.10;;
18657;SDS011;9458;50.942;5.074;2023-02-01T02:54:23;12.93;;;2.70;;
18657;SDS011;9458;50.942;5.074;2023-02-01T02:57:14;11.27;;;3.15;;
18657;SDS011;9458;50.942;5.074;2023-02-01T03:00:03;13.20;;;2.20;;
18657;SDS011;9458;50.942;5.074;2023-02-01T03:03:02;15.57;;;3.10;;
18657;SDS011;9458;50.942;5.074;2023-02-01T03:05:48;11.07;;;2.75;;
18657;SDS011;9458;50.942;5.074;2023-02-01T03:08:19;10.25;;;2.08;;
18657;SDS011;9458;50.942;5.074;2023-02-01T03:10:49;11.07;;;2.70;;
18657;SDS011;9458;50.942;5.074;2023-02-01T03:13:24;10.73;;;2.80;;
18657;SDS011;9458;50.942;5.074;2023-02-01T03:15:58;9.50;;;2.28;;
18657;SDS011;9458;50.942;5.074;2023-02-01T03:18:33;11.48;;;2.28;;
18657;SDS011;9458;50.942;5.074;2023-02-01T03:21:10;14.27;;;2.08;;
18657;SDS011;9458;50.942;5.074;2023-02-01T03:23:43;10.00;;;2.40;;
18657;SDS011;9458;50.942;5.074;2023-02-01T03:26:14;15.30;;;2.83;;
18657;SDS011;9458;50.942;5.074;2023-02-01T03:28:48;9.70;;;2.00;;
18657;SDS011;9458;50.942;5.074;2023-02-01T03:31:19;13.87;;;2.60;;
18657;SDS011;9458;50.942;5.074;2023-02-01T03:33:48;8.30;;;2.57;;
18657;SDS011;9458;50.942;5.074;2023-02-01T03:36:18;10.67;;;2.20;;
18657;SDS011;9458;50.942;5.074;2023-02-01T03:38:55;13.43;;;2.90;;
18657;SDS011;9458;50.942;5.074;2023-02-01T03:41:32;7.88;;;2.35;;
18657;SDS011;9458;50.942;5.074;2023-02-01T03:44:07;9.17;;;2.77;;
18657;SDS011;9458;50.942;5.074;2023-02-01T03:46:41;10.03;;;2.77;;
18657;SDS011;9458;50.942;5.074;2023-02-01T03:49:14;7.93;;;2.45;;
18657;SDS011;9458;50.942;5.074;2023-02-01T03:51:47;13.00;;;2.60;;
18657;SDS011;9458;50.942;5.074;2023-02-01T03:54:19;13.07;;;2.77;;
18657;SDS011;9458;50.942;5.074;2023-02-01T03:56:48;9.88;;;2.78;;
18657;SDS011;9458;50.942;5.074;2023-02-01T03:59:18;11.70;;;2.50;;
18657;SDS011;9458;50.942;5.074;2023-02-01T04:01:45;12.55;;;2.63;;
18657;SDS011;9458;50.942;5.074;2023-02-01T04:04:13;10.67;;;2.43;;
18657;SDS011;9458;50.942;5.074;2023-02-01T04:06:46;9.60;;;2.35;;
18657;SDS011;9458;50.942;5.074;2023-02-01T04:09:14;12.93;;;3.13;;
18657;SDS011;9458;50.942;5.074;2023-02-01T04:11:45;10.90;;;2.30;;
18657;SDS011;9458;50.942;5.074;2023-02-01T04:14:15;10.75;;;2.25;;
18657;SDS011;9458;50.942;5.074;2023-02-01T04:16:43;8.43;;;2.10;;
18657;SDS011;9458;50.942;5.074;2023-02-01T04:19:13;13.67;;;2.67;;
18657;SDS011;9458;50.942;5.074;2023-02-01T04:21:41;13.40;;;2.47;;
18657;SDS011;9458;50.942;5.074;2023-02-01T04:24:09;10.73;;;2.30;;
18657;SDS011;9458;50.942;5.074;2023-02-01T04:26:38;12.93;;;2.95;;
18657;SDS011;9458;50.942;5.074;2023-02-01T04:29:11;8.60;;;2.33;;
18657;SDS011;9458;50.942;5.074;2023-02-01T04:31:40;9.30;;;2.60;;
18657;SDS011;9458;50.942;5.074;2023-02-01T04:34:08;10.23;;;2.58;;
18657;SDS011;9458;50.942;5.074;2023-02-01T04:36:36;8.88;;;2.08;;
18657;SDS011;9458;50.942;5.074;2023-02-01T04:39:04;12.63;;;2.85;;
18657;SDS011;9458;50.942;5.074;2023-02-01T04:41:32;9.95;;;2.47;;
18657;SDS011;9458;50.942;5.074;2023-02-01T04:43:59;12.17;;;3.33;;
18657;SDS011;9458;50.942;5.074;2023-02-01T04:46:29;8.90;;;2.70;;
18657;SDS011;9458;50.942;5.074;2023-02-01T04:48:57;13.80;;;2.70;;
18657;SDS011;9458;50.942;5.074;2023-02-01T04:51:25;11.35;;;2.60;;
18657;SDS011;9458;50.942;5.074;2023-02-01T04:53:53;12.37;;;2.80;;
18657;SDS011;9458;50.942;5.074;2023-02-01T04:56:24;12.57;;;2.63;;
18657;SDS011;9458;50.942;5.074;2023-02-01T04:58:52;13.83;;;2.00;;
18657;SDS011;9458;50.942;5.074;2023-02-01T05:01:21;12.90;;;3.03;;
18657;SDS011;9458;50.942;5.074;2023-02-01T05:03:51;14.27;;;3.03;;
18657;SDS011;9458;50.942;5.074;2023-02-01T05:06:18;10.23;;;2.70;;
18657;SDS011;9458;50.942;5.074;2023-02-01T05:08:46;6.93;;;2.23;;
18657;SDS011;9458;50.942;5.074;2023-02-01T05:11:14;12.63;;;2.77;;
18657;SDS011;9458;50.942;5.074;2023-02-01T05:13:55;8.70;;;2.50;;
18657;SDS011;9458;50.942;5.074;2023-02-01T05:16:23;17.17;;;2.80;;
18657;SDS011;9458;50.942;5.074;2023-02-01T05:18:53;14.10;;;2.80;;
18657;SDS011;9458;50.942;5.074;2023-02-01T05:21:21;12.03;;;2.67;;
18657;SDS011;9458;50.942;5.074;2023-02-01T05:23:49;14.10;;;2.60;;
18657;SDS011;9458;50.942;5.074;2023-02-01T05:26:35;7.23;;;2.20;;
18657;SDS011;9458;50.942;5.074;2023-02-01T05:29:03;10.10;;;2.43;;
18657;SDS011;9458;50.942;5.074;2023-02-01T05:31:32;12.50;;;2.23;;
18657;SDS011;9458;50.942;5.074;2023-02-01T05:34:02;13.57;;;2.93;;
18657;SDS011;9458;50.942;5.074;2023-02-01T05:36:31;11.20;;;2.53;;
18657;SDS011;9458;50.942;5.074;2023-02-01T05:39:00;13.67;;;2.90;;
18657;SDS011;9458;50.942;5.074;2023-02-01T05:41:28;10.57;;;2.90;;
18657;SDS011;9458;50.942;5.074;2023-02-01T05:43:55;7.77;;;2.83;;
18657;SDS011;9458;50.942;5.074;2023-02-01T05:46:23;11.90;;;2.40;;
18657;SDS011;9458;50.942;5.074;2023-02-01T05:48:51;13.63;;;2.90;;
18657;SDS011;9458;50.942;5.074;2023-02-01T05:51:20;12.57;;;2.50;;
18657;SDS011;9458;50.942;5.074;2023-02-01T05:53:50;8.47;;;2.23;;
18657;SDS011;9458;50.942;5.074;2023-02-01T05:56:17;9.73;;;2.37;;
18657;SDS011;9458;50.942;5.074;2023-02-01T05:58:46;11.90;;;2.30;;
18657;SDS011;9458;50.942;5.074;2023-02-01T06:01:13;12.73;;;2.83;;
18657;SDS011;9458;50.942;5.074;2023-02-01T06:03:41;13.10;;;2.53;;
18657;SDS011;9458;50.942;5.074;2023-02-01T06:06:09;14.57;;;2.90;;
18657;SDS011;9458;50.942;5.074;2023-02-01T06:08:38;11.70;;;2.60;;
18657;SDS011;9458;50.942;5.074;2023-02-01T06:11:07;14.60;;;2.77;;
18657;SDS011;9458;50.942;5.074;2023-02-01T06:13:35;9.30;;;2.40;;
18657;SDS011;9458;50.942;5.074;2023-02-01T06:16:04;10.20;;;2.03;;
18657;SDS011;9458;50.942;5.074;2023-02-01T06:18:33;12.90;;;2.73;;
18657;SDS011;9458;50.942;5.074;2023-02-01T06:21:00;14.20;;;3.67;;
18657;SDS011;9458;50.942;5.074;2023-02-01T06:23:29;13.90;;;2.73;;
18657;SDS011;9458;50.942;5.074;2023-02-01T06:26:00;13.13;;;2.87;;
18657;SDS011;9458;50.942;5.074;2023-02-01T06:28:29;10.47;;;2.23;;
18657;SDS011;9458;50.942;5.074;2023-02-01T06:30:57;9.13;;;2.43;;
18657;SDS011;9458;50.942;5.074;2023-02-01T06:33:32;9.90;;;2.40;;
18657;SDS011;9458;50.942;5.074;2023-02-01T06:36:02;12.97;;;2.97;;
18657;SDS011;9458;50.942;5.074;2023-02-01T06:38:32;11.33;;;2.13;;
18657;SDS011;9458;50.942;5.074;2023-02-01T06:41:02;17.37;;;2.63;;
18657;SDS011;9458;50.942;5.074;2023-02-01T06:43:30;12.10;;;2.87;;
18657;SDS011;9458;50.942;5.074;2023-02-01T06:46:00;11.90;;;2.23;;
18657;SDS011;9458;50.942;5.074;2023-02-01T06:48:29;10.87;;;2.33;;
18657;SDS011;9458;50.942;5.074;2023-02-01T06:50:58;13.10;;;2.60;;
18657;SDS011;9458;50.942;5.074;2023-02-01T06:53:26;10.63;;;2.37;;
18657;SDS011;9458;50.942;5.074;2023-02-01T06:55:54;16.47;;;3.03;;
18657;SDS011;9458;50.942;5.074;2023-02-01T06:58:27;12.13;;;2.60;;
18657;SDS011;9458;50.942;5.074;2023-02-01T07:00:55;11.57;;;2.30;;
18657;SDS011;9458;50.942;5.074;2023-02-01T07:03:33;11.50;;;2.07;;
18657;SDS011;9458;50.942;5.074;2023-02-01T07:06:02;16.40;;;3.13;;
18657;SDS011;9458;50.942;5.074;2023-02-01T07:08:33;10.17;;;2.87;;
18657;SDS011;9458;50.942;5.074;2023-02-01T07:11:07;11.93;;;2.13;;
18657;SDS011;9458;50.942;5.074;2023-02-01T07:13:50;11.70;;;2.03;;
18657;SDS011;9458;50.942;5.074;2023-02-01T07:16:19;13.03;;;2.40;;
18657;SDS011;9458;50.942;5.074;2023-02-01T07:18:47;13.40;;;2.77;;
18657;SDS011;9458;50.942;5.074;2023-02-01T07:21:16;14.00;;;2.87;;
18657;SDS011;9458;50.942;5.074;2023-02-01T07:23:44;13.77;;;2.73;;
18657;SDS011;9458;50.942;5.074;2023-02-01T07:26:12;15.93;;;2.73;;
18657;SDS011;9458;50.942;5.074;2023-02-01T07:28:41;11.43;;;2.27;;
18657;SDS011;9458;50.942;5.074;2023-02-01T07:31:12;11.93;;;3.47;;
18657;SDS011;9458;50.942;5.074;2023-02-01T07:33:41;14.33;;;2.77;;
18657;SDS011;9458;50.942;5.074;2023-02-01T07:36:12;9.87;;;2.33;;
18657;SDS011;9458;50.942;5.074;2023-02-01T07:38:41;7.70;;;2.20;;
18657;SDS011;9458;50.942;5.074;2023-02-01T07:41:09;11.53;;;2.47;;
18657;SDS011;9458;50.942;5.074;2023-02-01T07:43:37;8.90;;;1.93;;
18657;SDS011;9458;50.942;5.074;2023-02-01T07:46:05;8.63;;;2.25;;
18657;SDS011;9458;50.942;5.074;2023-02-01T07:48:36;18.25;;;2.72;;
18657;SDS011;9458;50.942;5.074;2023-02-01T07:51:05;11.00;;;2.80;;
18657;SDS011;9458;50.942;5.074;2023-02-01T07:53:35;9.20;;;2.63;;
18657;SDS011;9458;50.942;5.074;2023-02-01T07:56:03;13.73;;;2.50;;
18657;SDS011;9458;50.942;5.074;2023-02-01T07:58:36;13.10;;;2.90;;
18657;SDS011;9458;50.942;5.074;2023-02-01T08:01:05;10.65;;;2.75;;
18657;SDS011;9458;50.942;5.074;2023-02-01T08:03:59;12.15;;;2.40;;
18657;SDS011;9458;50.942;5.074;2023-02-01T08:06:45;11.63;;;2.30;;
18657;SDS011;9458;50.942;5.074;2023-02-01T08:09:19;10.90;;;2.30;;
18657;SDS011;9458;50.942;5.074;2023-02-01T08:11:57;7.70;;;2.40;;
18657;SDS011;9458;50.942;5.074;2023-02-01T08:14:27;13.40;;;2.83;;
18657;SDS011;9458;50.942;5.074;2023-02-01T08:17:04;14.43;;;3.35;;
18657;SDS011;9458;50.942;5.074;2023-02-01T08:20:08;10.23;;;2.45;;
18657;SDS011;9458;50.942;5.074;2023-02-01T08:22:42;11.07;;;2.60;;
18657;SDS011;9458;50.942;5.074;2023-02-01T08:25:21;12.05;;;3.15;;
18657;SDS011;9458;50.942;5.074;2023-02-01T08:27:55;12.07;;;2.75;;
18657;SDS011;9458;50.942;5.074;2023-02-01T08:30:23;11.27;;;2.40;;
18657;SDS011;9458;50.942;5.074;2023-02-01T08:32:52;10.13;;;2.60;;
18657;SDS011;9458;50.942;5.074;2023-02-01T08:35:24;12.13;;;2.65;;
18657;SDS011;9458;50.942;5.074;2023-02-01T08:37:51;9.13;;;2.83;;
18657;SDS011;9458;50.942;5.074;2023-02-01T08:40:19;11.02;;;2.72;;
18657;SDS011;9458;50.942;5.074;2023-02-01T08:42:48;12.82;;;2.30;;
18657;SDS011;9458;50.942;5.074;2023-02-01T08:45:20;15.15;;;3.25;;
18657;SDS011;9458;50.942;5.074;2023-02-01T08:47:54;10.45;;;3.47;;
18657;SDS011;9458;50.942;5.074;2023-02-01T08:50:28;8.90;;;2.20;;
18657;SDS011;9458;50.942;5.074;2023-02-01T08:53:06;10.93;;;2.42;;
18657;SDS011;9458;50.942;5.074;2023-02-01T08:55:40;10.65;;;2.83;;
18657;SDS011;9458;50.942;5.074;2023-02-01T08:58:13;12.60;;;2.70;;
18657;SDS011;9458;50.942;5.074;2023-02-01T09:00:44;12.05;;;3.25;;
18657;SDS011;9458;50.942;5.074;2023-02-01T09:03:17;15.45;;;3.10;;
18657;SDS011;9458;50.942;5.074;2023-02-01T09:05:52;9.60;;;2.72;;
18657;SDS011;9458;50.942;5.074;2023-02-01T09:08:30;16.83;;;2.83;;
18657;SDS011;9458;50.942;5.074;2023-02-01T09:11:02;12.32;;;2.75;;
18657;SDS011;9458;50.942;5.074;2023-02-01T09:13:41;14.52;;;3.20;;
18657;SDS011;9458;50.942;5.074;2023-02-01T09:16:25;15.70;;;2.95;;
18657;SDS011;9458;50.942;5.074;2023-02-01T09:18:57;16.20;;;3.35;;
18657;SDS011;9458;50.942;5.074;2023-02-01T09:21:27;14.18;;;2.60;;
18657;SDS011;9458;50.942;5.074;2023-02-01T09:23:58;10.13;;;2.88;;
18657;SDS011;9458;50.942;5.074;2023-02-01T09:26:27;11.13;;;3.20;;
18657;SDS011;9458;50.942;5.074;2023-02-01T09:28:55;10.05;;;2.70;;
18657;SDS011;9458;50.942;5.074;2023-02-01T09:31:22;16.63;;;3.25;;
18657;SDS011;9458;50.942;5.074;2023-02-01T09:33:49;15.13;;;2.85;;
18657;SDS011;9458;50.942;5.074;2023-02-01T09:36:18;19.00;;;3.15;;
18657;SDS011;9458;50.942;5.074;2023-02-01T09:38:48;13.27;;;3.10;;
18657;SDS011;9458;50.942;5.074;2023-02-01T09:41:23;10.75;;;2.63;;
18657;SDS011;9458;50.942;5.074;2023-02-01T09:44:05;11.82;;;2.65;;
18657;SDS011;9458;50.942;5.074;2023-02-01T09:46:37;13.90;;;3.15;;
18657;SDS011;9458;50.942;5.074;2023-02-01T09:49:09;13.02;;;3.22;;
18657;SDS011;9458;50.942;5.074;2023-02-01T09:51:43;12.10;;;3.08;;
18657;SDS011;9458;50.942;5.074;2023-02-01T09:54:17;11.60;;;2.97;;
18657;SDS011;9458;50.942;5.074;2023-02-01T09:56:48;13.52;;;3.80;;
18657;SDS011;9458;50.942;5.074;2023-02-01T09:59:23;14.07;;;3.22;;
18657;SDS011;9458;50.942;5.074;2023-02-01T10:01:57;11.43;;;2.88;;
18657;SDS011;9458;50.942;5.074;2023-02-01T10:04:26;11.82;;;3.15;;
18657;SDS011;9458;50.942;5.074;2023-02-01T10:07:03;14.55;;;3.10;;
18657;SDS011;9458;50.942;5.074;2023-02-01T10:09:42;6.82;;;2.50;;
18657;SDS011;9458;50.942;5.074;2023-02-01T10:12:30;13.80;;;2.72;;
18657;SDS011;9458;50.942;5.074;2023-02-01T10:15:15;11.40;;;2.70;;
18657;SDS011;9458;50.942;5.074;2023-02-01T10:18:07;13.75;;;2.67;;
18657;SDS011;9458;50.942;5.074;2023-02-01T10:20:49;10.10;;;2.83;;
18657;SDS011;9458;50.942;5.074;2023-02-01T10:23:30;8.70;;;2.95;;
18657;SDS011;9458;50.942;5.074;2023-02-01T10:26:18;13.98;;;3.30;;
18657;SDS011;9458;50.942;5.074;2023-02-01T10:28:48;13.10;;;2.88;;
18657;SDS011;9458;50.942;5.074;2023-02-01T10:31:19;13.18;;;3.08;;
18657;SDS011;9458;50.942;5.074;2023-02-01T10:33:50;8.57;;;2.42;;
18657;SDS011;9458;50.942;5.074;2023-02-01T10:36:25;11.32;;;2.55;;
18657;SDS011;9458;50.942;5.074;2023-02-01T10:38:58;11.77;;;2.97;;
18657;SDS011;9458;50.942;5.074;2023-02-01T10:41:30;11.38;;;3.28;;
18657;SDS011;9458;50.942;5.074;2023-02-01T10:44:00;11.27;;;3.00;;
18657;SDS011;9458;50.942;5.074;2023-02-01T10:46:33;10.40;;;2.63;;
18657;SDS011;9458;50.942;5.074;2023-02-01T10:49:02;12.70;;;3.00;;
18657;SDS011;9458;50.942;5.074;2023-02-01T10:51:35;11.27;;;2.95;;
18657;SDS011;9458;50.942;5.074;2023-02-01T10:54:10;14.90;;;2.63;;
18657;SDS011;9458;50.942;5.074;2023-02-01T10:56:44;10.63;;;2.28;;
18657;SDS011;9458;50.942;5.074;2023-02-01T10:59:16;16.25;;;2.33;;
18657;SDS011;9458;50.942;5.074;2023-02-01T11:02:02;9.52;;;2.58;;
18657;SDS011;9458;50.942;5.074;2023-02-01T11:04:58;11.35;;;2.95;;
18657;SDS011;9458;50.942;5.074;2023-02-01T11:07:30;12.60;;;3.15;;
18657;SDS011;9458;50.942;5.074;2023-02-01T11:10:03;14.55;;;2.70;;
18657;SDS011;9458;50.942;5.074;2023-02-01T11:12:40;10.23;;;2.60;;
18657;SDS011;9458;50.942;5.074;2023-02-01T11:15:13;11.68;;;2.53;;
18657;SDS011;9458;50.942;5.074;2023-02-01T11:17:46;9.05;;;2.40;;
18657;SDS011;9458;50.942;5.074;2023-02-01T11:20:17;15.95;;;2.80;;
18657;SDS011;9458;50.942;5.074;2023-02-01T11:22:47;10.95;;;2.28;;
18657;SDS011;9458;50.942;5.074;2023-02-01T11:25:20;14.75;;;2.97;;
18657;SDS011;9458;50.942;5.074;2023-02-01T11:27:50;13.32;;;2.58;;
18657;SDS011;9458;50.942;5.074;2023-02-01T11:30:22;14.13;;;3.03;;
18657;SDS011;9458;50.942;5.074;2023-02-01T11:33:16;13.60;;;2.35;;
18657;SDS011;9458;50.942;5.074;2023-02-01T11:35:45;14.15;;;2.58;;
18657;SDS011;9458;50.942;5.074;2023-02-01T11:38:20;9.90;;;2.33;;
18657;SDS011;9458;50.942;5.074;2023-02-01T11:40:59;14.00;;;3.13;;
18657;SDS011;9458;50.942;5.074;2023-02-01T11:44:00;10.13;;;2.33;;
18657;SDS011;9458;50.942;5.074;2023-02-01T11:46:29;11.90;;;2.95;;
18657;SDS011;9458;50.942;5.074;2023-02-01T11:49:13;10.95;;;2.58;;
18657;SDS011;9458;50.942;5.074;2023-02-01T11:51:49;8.95;;;2.10;;
18657;SDS011;9458;50.942;5.074;2023-02-01T11:54:39;23.25;;;3.22;;
18657;SDS011;9458;50.942;5.074;2023-02-01T11:57:27;7.97;;;2.13;;
18657;SDS011;9458;50.942;5.074;2023-02-01T12:00:16;8.98;;;1.98;;
18657;SDS011;9458;50.942;5.074;2023-02-01T12:03:07;9.80;;;2.13;;
18657;SDS011;9458;50.942;5.074;2023-02-01T12:05:53;20.60;;;3.30;;
18657;SDS011;9458;50.942;5.074;2023-02-01T12:08:28;9.98;;;2.08;;
18657;SDS011;9458;50.942;5.074;2023-02-01T12:11:26;9.50;;;1.95;;
18657;SDS011;9458;50.942;5.074;2023-02-01T12:14:05;15.00;;;1.90;;
18657;SDS011;9458;50.942;5.074;2023-02-01T12:16:48;10.48;;;1.92;;
18657;SDS011;9458;50.942;5.074;2023-02-01T12:19:31;12.82;;;2.20;;
18657;SDS011;9458;50.942;5.074;2023-02-01T12:22:16;9.93;;;2.00;;
18657;SDS011;9458;50.942;5.074;2023-02-01T12:27:50;11.23;;;2.15;;
18657;SDS011;9458;50.942;5.074;2023-02-01T12:30:46;7.22;;;1.73;;
18657;SDS011;9458;50.942;5.074;2023-02-01T12:33:34;6.80;;;2.08;;
18657;SDS011;9458;50.942;5.074;2023-02-01T12:36:10;6.25;;;1.58;;
18657;SDS011;9458;50.942;5.074;2023-02-01T12:38:48;7.78;;;2.10;;
18657;SDS011;9458;50.942;5.074;2023-02-01T12:41:32;8.57;;;1.80;;
18657;SDS011;9458;50.942;5.074;2023-02-01T12:44:13;10.32;;;2.33;;
18657;SDS011;9458;50.942;5.074;2023-02-01T12:46:50;11.82;;;2.28;;
18657;SDS011;9458;50.942;5.074;2023-02-01T12:49:22;9.75;;;2.25;;
18657;SDS011;9458;50.942;5.074;2023-02-01T12:51:58;8.90;;;2.33;;
18657;SDS011;9458;50.942;5.074;2023-02-01T12:54:30;12.45;;;2.05;;
18657;SDS011;9458;50.942;5.074;2023-02-01T12:57:04;14.18;;;2.15;;
18657;SDS011;9458;50.942;5.074;2023-02-01T12:59:37;7.38;;;1.90;;
18657;SDS011;9458;50.942;5.074;2023-02-01T13:02:12;10.20;;;2.33;;
18657;SDS011;9458;50.942;5.074;2023-02-01T13:04:48;7.63;;;1.95;;
18657;SDS011;9458;50.942;5.074;2023-02-01T13:07:25;9.82;;;1.65;;
18657;SDS011;9458;50.942;5.074;2023-02-01T13:09:58;11.68;;;2.33;;
18657;SDS011;9458;50.942;5.074;2023-02-01T13:12:32;7.75;;;1.83;;
18657;SDS011;9458;50.942;5.074;2023-02-01T13:15:05;9.77;;;1.92;;
18657;SDS011;9458;50.942;5.074;2023-02-01T13:17:40;9.52;;;1.90;;
18657;SDS011;9458;50.942;5.074;2023-02-01T13:20:17;6.88;;;1.80;;
18657;SDS011;9458;50.942;5.074;2023-02-01T13:22:51;9.68;;;1.88;;
18657;SDS011;9458;50.942;5.074;2023-02-01T13:25:26;9.80;;;1.95;;
18657;SDS011;9458;50.942;5.074;2023-02-01T13:28:06;5.53;;;1.58;;
18657;SDS011;9458;50.942;5.074;2023-02-01T13:30:47;10.48;;;1.70;;
18657;SDS011;9458;50.942;5.074;2023-02-01T13:33:48;6.97;;;1.50;;
18657;SDS011;9458;50.942;5.074;2023-02-01T13:36:41;4.88;;;1.73;;
18657;SDS011;9458;50.942;5.074;2023-02-01T13:39:26;11.73;;;1.67;;
18657;SDS011;9458;50.942;5.074;2023-02-01T13:42:14;6.68;;;2.22;;
18657;SDS011;9458;50.942;5.074;2023-02-01T13:44:45;6.97;;;1.65;;
18657;SDS011;9458;50.942;5.074;2023-02-01T13:47:19;9.27;;;1.98;;
18657;SDS011;9458;50.942;5.074;2023-02-01T13:49:54;7.13;;;1.70;;
18657;SDS011;9458;50.942;5.074;2023-02-01T13:55:14;7.35;;;1.52;;
18657;SDS011;9458;50.942;5.074;2023-02-01T13:58:02;8.63;;;1.50;;
18657;SDS011;9458;50.942;5.074;2023-02-01T14:00:33;5.53;;;1.52;;
18657;SDS011;9458;50.942;5.074;2023-02-01T14:03:08;6.35;;;1.70;;
18657;SDS011;9458;50.942;5.074;2023-02-01T14:05:56;6.45;;;1.40;;
18657;SDS011;9458;50.942;5.074;2023-02-01T14:08:40;9.25;;;2.35;;
18657;SDS011;9458;50.942;5.074;2023-02-01T14:23:10;8.30;;;1.48;;
18657;SDS011;9458;50.942;5.074;2023-02-01T14:25:59;5.15;;;1.92;;
18657;SDS011;9458;50.942;5.074;2023-02-01T14:28:40;8.85;;;2.10;;
18657;SDS011;9458;50.942;5.074;2023-02-01T14:31:28;10.10;;;2.00;;
18657;SDS011;9458;50.942;5.074;2023-02-01T14:34:17;8.93;;;1.67;;
18657;SDS011;9458;50.942;5.074;2023-02-01T14:36:52;9.23;;;2.38;;
18657;SDS011;9458;50.942;5.074;2023-02-01T14:39:26;7.38;;;1.40;;
18657;SDS011;9458;50.942;5.074;2023-02-01T14:42:01;7.72;;;1.83;;
18657;SDS011;9458;50.942;5.074;2023-02-01T14:44:38;16.58;;;1.80;;
18657;SDS011;9458;50.942;5.074;2023-02-01T14:47:10;10.02;;;1.98;;
18657;SDS011;9458;50.942;5.074;2023-02-01T14:50:07;7.10;;;1.73;;
18657;SDS011;9458;50.942;5.074;2023-02-01T14:52:46;6.53;;;1.55;;
18657;SDS011;9458;50.942;5.074;2023-02-01T14:55:18;8.70;;;1.63;;
18657;SDS011;9458;50.942;5.074;2023-02-01T14:58:10;5.72;;;1.80;;
18657;SDS011;9458;50.942;5.074;2023-02-01T15:00:48;6.60;;;1.70;;
18657;SDS011;9458;50.942;5.074;2023-02-01T15:03:29;8.30;;;1.63;;
18657;SDS011;9458;50.942;5.074;2023-02-01T15:06:18;9.07;;;2.03;;
18657;SDS011;9458;50.942;5.074;2023-02-01T15:08:52;8.88;;;1.90;;
18657;SDS011;9458;50.942;5.074;2023-02-01T15:11:23;7.05;;;1.45;;
18657;SDS011;9458;50.942;5.074;2023-02-01T15:13:53;6.70;;;1.65;;
18657;SDS011;9458;50.942;5.074;2023-02-01T15:16:24;11.90;;;1.75;;
18657;SDS011;9458;50.942;5.074;2023-02-01T15:19:19;7.20;;;1.60;;
18657;SDS011;9458;50.942;5.074;2023-02-01T15:21:50;6.65;;;2.17;;
18657;SDS011;9458;50.942;5.074;2023-02-01T15:24:21;6.65;;;1.42;;
18657;SDS011;9458;50.942;5.074;2023-02-01T15:26:50;9.10;;;2.20;;
18657;SDS011;9458;50.942;5.074;2023-02-01T15:29:21;11.77;;;1.80;;
18657;SDS011;9458;50.942;5.074;2023-02-01T15:31:51;10.07;;;1.90;;
18657;SDS011;9458;50.942;5.074;2023-02-01T15:34:20;10.85;;;1.77;;
18657;SDS011;9458;50.942;5.074;2023-02-01T15:36:48;7.93;;;1.98;;
18657;SDS011;9458;50.942;5.074;2023-02-01T15:39:17;6.28;;;2.22;;
18657;SDS011;9458;50.942;5.074;2023-02-01T15:41:49;6.45;;;1.55;;
18657;SDS011;9458;50.942;5.074;2023-02-01T15:44:37;9.90;;;1.90;;
18657;SDS011;9458;50.942;5.074;2023-02-01T15:47:08;13.07;;;2.10;;
18657;SDS011;9458;50.942;5.074;2023-02-01T15:49:41;10.48;;;1.90;;
18657;SDS011;9458;50.942;5.074;2023-02-01T15:52:19;14.70;;;2.13;;
18657;SDS011;9458;50.942;5.074;2023-02-01T15:54:54;13.80;;;2.47;;
18657;SDS011;9458;50.942;5.074;2023-02-01T15:57:24;7.63;;;2.15;;
18657;SDS011;9458;50.942;5.074;2023-02-01T15:59:59;11.93;;;2.03;;